createdAt,value
2022-12-22T00:01:49.584Z,2.24
2022-12-22T00:05:11.338Z,2.22
2022-12-22T00:08:32.285Z,2.28
2022-12-22T00:11:53.431Z,2.33
2022-12-22T00:15:14.620Z,2.28
2022-12-22T00:18:36.029Z,2.35
2022-12-22T00:21:57.148Z,2.36
2022-12-22T00:25:18.585Z,2.43
2022-12-22T00:28:39.606Z,2.39
2022-12-22T00:32:01.550Z,2.33
2022-12-22T00:35:22.299Z,2.37
2022-12-22T00:38:43.569Z,2.43
2022-12-22T00:42:04.447Z,2.44
2022-12-22T00:45:26.308Z,2.27
2022-12-22T00:48:47.240Z,2.39
2022-12-22T00:52:08.841Z,2.38
2022-12-22T00:55:34.821Z,2.37
2022-12-22T00:58:56.389Z,2.46
2022-12-22T01:02:17.361Z,2.48
2022-12-22T01:05:38.752Z,2.43
2022-12-22T01:08:59.643Z,2.50
2022-12-22T01:12:22.600Z,2.43
2022-12-22T01:15:45.531Z,2.54
2022-12-22T01:19:07.015Z,2.53
2022-12-22T01:22:30.723Z,2.47
2022-12-22T01:25:52.239Z,2.50
2022-12-22T01:29:13.235Z,2.51
2022-12-22T01:32:34.608Z,2.57
2022-12-22T01:35:55.590Z,2.54
2022-12-22T01:39:17.163Z,2.56
2022-12-22T01:42:38.135Z,2.52
2022-12-22T01:45:59.836Z,2.40
2022-12-22T01:49:20.720Z,2.46
2022-12-22T01:52:48.835Z,2.50
2022-12-22T01:56:10.335Z,2.47
2022-12-22T01:59:31.932Z,2.48
2022-12-22T02:02:53.209Z,2.54
2022-12-22T02:06:56.233Z,2.58
2022-12-22T02:11:08.241Z,2.51
2022-12-22T02:14:35.072Z,2.47
2022-12-22T02:18:33.401Z,2.43
2022-12-22T02:22:13.088Z,2.51
2022-12-22T02:25:47.111Z,2.42
2022-12-22T02:29:09.949Z,2.47
2022-12-22T02:32:31.083Z,2.39
2022-12-22T02:36:16.205Z,2.49
2022-12-22T02:39:49.642Z,2.51
2022-12-22T02:43:33.263Z,2.57
2022-12-22T02:47:05.550Z,2.49
2022-12-22T02:50:39.460Z,2.43
2022-12-22T02:54:01.103Z,2.50
2022-12-22T02:57:25.294Z,2.50
2022-12-22T03:00:46.458Z,2.52
2022-12-22T03:04:08.113Z,2.53
2022-12-22T03:07:28.997Z,2.58
2022-12-22T03:10:50.275Z,2.55
2022-12-22T03:14:11.218Z,2.61
2022-12-22T03:17:32.348Z,2.61
2022-12-22T03:20:53.321Z,2.61
2022-12-22T03:24:14.873Z,2.64
2022-12-22T03:27:17.205Z,2.59
2022-12-22T03:30:20.119Z,2.64
2022-12-22T03:33:24.945Z,2.63
2022-12-22T03:36:27.551Z,2.64
2022-12-22T03:39:29.864Z,2.82
2022-12-22T03:42:51.093Z,2.77
2022-12-22T03:46:29.540Z,2.82
2022-12-22T03:49:32.284Z,2.73
2022-12-22T03:52:34.632Z,2.65
2022-12-22T03:55:37.274Z,2.72
2022-12-22T03:58:39.588Z,2.69
2022-12-22T04:01:45.117Z,2.71
2022-12-22T04:04:47.903Z,2.67
2022-12-22T04:07:50.224Z,2.75
2022-12-22T04:11:11.565Z,2.79
2022-12-22T04:14:13.891Z,2.66
2022-12-22T04:17:16.481Z,2.65
2022-12-22T04:20:20.115Z,2.67
2022-12-22T04:23:22.790Z,2.61
2022-12-22T04:26:26.134Z,2.55
2022-12-22T04:29:28.736Z,2.55
2022-12-22T04:32:31.073Z,2.51
2022-12-22T04:35:33.734Z,2.66
2022-12-22T04:38:36.646Z,2.65
2022-12-22T04:41:39.228Z,2.62
2022-12-22T04:44:41.553Z,2.57
2022-12-22T04:47:44.302Z,2.58
2022-12-22T04:50:49.903Z,2.61
2022-12-22T04:53:52.556Z,2.75
2022-12-22T04:56:54.871Z,2.72
2022-12-22T04:59:57.533Z,2.69
2022-12-22T05:03:00.035Z,2.69
2022-12-22T05:06:03.251Z,2.71
2022-12-22T05:09:05.617Z,2.76
2022-12-22T05:12:26.950Z,2.68
2022-12-22T05:15:32.182Z,2.76
2022-12-22T05:18:35.869Z,2.68
2022-12-22T05:21:38.288Z,2.83
2022-12-22T05:24:40.920Z,2.81
2022-12-22T05:27:44.659Z,2.67
2022-12-22T05:30:47.286Z,2.73
2022-12-22T05:33:50.377Z,2.67
2022-12-22T05:36:53.044Z,2.64
2022-12-22T05:39:56.142Z,2.61
2022-12-22T05:42:58.735Z,2.69
2022-12-22T05:46:05.597Z,2.73
2022-12-22T05:49:08.830Z,2.72
2022-12-22T05:52:11.253Z,2.62
2022-12-22T05:55:15.633Z,2.79
2022-12-22T05:58:18.075Z,2.72
2022-12-22T06:01:20.742Z,2.68
2022-12-22T06:04:23.457Z,2.53
2022-12-22T06:07:25.958Z,2.48
2022-12-22T06:10:28.654Z,2.43
2022-12-22T06:13:30.921Z,2.51
2022-12-22T06:16:33.567Z,2.52
2022-12-22T06:19:35.868Z,2.62
2022-12-22T06:22:38.545Z,2.62
2022-12-22T06:25:40.902Z,2.57
2022-12-22T06:28:43.680Z,2.57
2022-12-22T06:31:46.220Z,2.46
2022-12-22T06:34:48.904Z,2.49
2022-12-22T06:37:51.322Z,2.58
2022-12-22T06:40:53.924Z,2.51
2022-12-22T06:43:56.217Z,2.59
2022-12-22T06:46:58.989Z,2.64
2022-12-22T06:50:01.392Z,2.56
2022-12-22T06:53:04.352Z,2.43
2022-12-22T06:56:07.240Z,2.56
2022-12-22T06:59:10.491Z,2.62
2022-12-22T07:02:12.943Z,2.49
2022-12-22T07:05:16.157Z,2.58
2022-12-22T07:08:18.428Z,2.63
2022-12-22T07:11:21.168Z,2.70
2022-12-22T07:14:23.502Z,2.72
2022-12-22T07:17:26.083Z,2.75
2022-12-22T07:20:28.493Z,2.71
2022-12-22T07:23:31.369Z,2.83
2022-12-22T07:26:33.685Z,2.85
2022-12-22T07:29:36.719Z,2.75
2022-12-22T07:32:39.011Z,2.86
2022-12-22T07:35:41.988Z,2.90
2022-12-22T07:38:47.328Z,2.97
2022-12-22T07:42:08.509Z,2.98
2022-12-22T07:45:16.308Z,2.98
2022-12-22T07:48:37.681Z,2.98
2022-12-22T07:51:41.848Z,2.91
2022-12-22T07:54:44.789Z,2.93
2022-12-22T07:57:47.224Z,3.00
2022-12-22T08:00:49.912Z,2.93
2022-12-22T08:03:52.680Z,2.90
2022-12-22T08:06:55.160Z,2.97
2022-12-22T08:09:57.762Z,2.94
2022-12-22T08:13:00.243Z,2.94
2022-12-22T08:16:07.635Z,2.93
2022-12-22T08:19:10.164Z,2.98
2022-12-22T08:22:12.937Z,2.99
2022-12-22T08:25:15.445Z,3.08
2022-12-22T08:28:18.553Z,3.11
2022-12-22T08:31:25.284Z,3.16
2022-12-22T08:34:28.315Z,3.18
2022-12-22T08:37:35.060Z,3.22
2022-12-22T08:40:38.253Z,3.39
2022-12-22T08:43:40.653Z,3.26
2022-12-22T08:46:43.417Z,3.33
2022-12-22T08:49:45.990Z,3.27
2022-12-22T08:52:48.785Z,3.24
2022-12-22T08:55:56.338Z,3.30
2022-12-22T08:58:59.119Z,3.27
2022-12-22T09:02:05.209Z,3.35
2022-12-22T09:05:08.484Z,3.34
2022-12-22T09:08:10.959Z,3.36
2022-12-22T09:11:14.276Z,3.23
2022-12-22T09:14:17.809Z,3.21
2022-12-22T09:17:20.571Z,3.35
2022-12-22T09:20:22.906Z,3.42
2022-12-22T09:23:26.289Z,3.50
2022-12-22T09:26:29.199Z,3.33
2022-12-22T09:29:31.997Z,3.24
2022-12-22T09:32:34.309Z,3.31
2022-12-22T09:35:41.530Z,3.29
2022-12-22T09:38:44.327Z,3.18
2022-12-22T09:41:55.828Z,3.43
2022-12-22T09:44:58.185Z,3.41
2022-12-22T09:48:02.196Z,3.32
2022-12-22T09:51:05.268Z,3.30
2022-12-22T09:54:11.261Z,3.41
2022-12-22T09:57:13.745Z,3.29
2022-12-22T10:00:19.799Z,3.35
2022-12-22T10:03:22.392Z,3.47
2022-12-22T10:06:47.404Z,3.28
2022-12-22T10:09:51.829Z,3.36
2022-12-22T10:12:56.502Z,3.48
2022-12-22T10:15:59.408Z,3.36
2022-12-22T10:19:13.456Z,3.20
2022-12-22T10:22:30.078Z,3.36
2022-12-22T10:26:00.419Z,3.32
2022-12-22T10:29:07.775Z,3.52
2022-12-22T10:32:18.638Z,3.57
2022-12-22T10:35:21.340Z,3.48
2022-12-22T10:38:29.346Z,3.58
2022-12-22T10:41:38.104Z,3.54
2022-12-22T10:44:46.101Z,3.57
2022-12-22T10:47:54.891Z,3.47
2022-12-22T10:50:58.925Z,3.63
2022-12-22T10:54:02.130Z,3.77
2022-12-22T10:57:29.873Z,3.78
2022-12-22T11:00:32.848Z,3.83
2022-12-22T11:03:35.304Z,3.66
2022-12-22T11:06:38.098Z,3.88
2022-12-22T11:09:40.704Z,3.93
2022-12-22T11:12:52.287Z,3.87
2022-12-22T11:16:08.155Z,3.86
2022-12-22T11:19:34.248Z,3.99
2022-12-22T11:22:45.260Z,4.10
2022-12-22T11:25:49.662Z,4.14
2022-12-22T11:29:10.608Z,4.08
2022-12-22T11:32:37.464Z,3.99
2022-12-22T11:35:57.072Z,4.20
2022-12-22T11:39:15.049Z,4.30
2022-12-22T11:43:09.412Z,4.20
2022-12-22T11:46:27.246Z,4.18
2022-12-22T11:49:48.264Z,4.15
2022-12-22T11:53:06.199Z,4.39
2022-12-22T11:56:38.586Z,4.17
2022-12-22T11:59:55.657Z,4.18
2022-12-22T12:03:04.028Z,3.95
2022-12-22T12:06:33.816Z,4.13
2022-12-22T12:09:45.409Z,4.31
2022-12-22T12:13:00.149Z,4.16
2022-12-22T12:16:19.921Z,4.30
2022-12-22T12:19:28.844Z,4.24
2022-12-22T12:22:43.606Z,4.20
2022-12-22T12:26:35.781Z,4.18
2022-12-22T12:29:44.138Z,4.21
2022-12-22T12:32:55.310Z,4.29
2022-12-22T12:36:09.746Z,4.28
2022-12-22T12:39:22.831Z,4.37
2022-12-22T12:42:33.524Z,4.41
2022-12-22T12:45:42.393Z,4.23
2022-12-22T12:48:44.822Z,4.35
2022-12-22T12:51:49.937Z,4.38
2022-12-22T12:54:53.297Z,4.44
2022-12-22T12:58:00.308Z,4.45
2022-12-22T13:01:04.724Z,4.38
2022-12-22T13:04:09.384Z,4.31
2022-12-22T13:07:11.962Z,4.45
2022-12-22T13:10:24.750Z,4.48
2022-12-22T13:13:27.140Z,4.43
2022-12-22T13:16:36.672Z,4.44
2022-12-22T13:19:39.172Z,4.49
2022-12-22T13:22:43.706Z,4.45
2022-12-22T13:25:53.102Z,4.39
2022-12-22T13:29:14.825Z,4.41
2022-12-22T13:32:33.360Z,4.39
2022-12-22T13:35:46.606Z,4.50
2022-12-22T13:39:01.359Z,4.41
2022-12-22T13:42:06.431Z,4.36
2022-12-22T13:45:20.326Z,4.37
2022-12-22T13:48:43.274Z,4.28
2022-12-22T13:51:47.940Z,4.33
2022-12-22T13:54:50.672Z,4.34
2022-12-22T13:57:58.408Z,4.30
2022-12-22T14:01:20.263Z,4.25
2022-12-22T14:04:23.279Z,4.23
2022-12-22T14:07:25.814Z,4.06
2022-12-22T14:10:35.940Z,3.95
2022-12-22T14:13:39.835Z,3.93
2022-12-22T14:16:45.647Z,3.88
2022-12-22T14:19:51.499Z,3.97
2022-12-22T14:23:04.971Z,3.84
2022-12-22T14:26:13.453Z,3.95
2022-12-22T14:29:22.096Z,4.09
2022-12-22T14:32:50.683Z,3.92
2022-12-22T14:36:19.361Z,4.00
2022-12-22T14:39:27.890Z,4.09
2022-12-22T14:42:31.924Z,4.01
2022-12-22T14:45:34.432Z,3.79
2022-12-22T14:48:45.070Z,3.83
2022-12-22T14:52:03.403Z,3.88
2022-12-22T14:55:20.983Z,3.88
2022-12-22T14:58:32.747Z,3.84
2022-12-22T15:01:35.513Z,3.73
2022-12-22T15:04:38.715Z,3.83
2022-12-22T15:08:05.993Z,3.79
2022-12-22T15:11:16.095Z,3.77
2022-12-22T15:14:33.512Z,3.66
2022-12-22T15:17:40.767Z,3.64
2022-12-22T15:20:43.552Z,3.52
2022-12-22T15:23:46.918Z,3.37
2022-12-22T15:26:49.604Z,3.52
2022-12-22T15:29:51.933Z,3.55
2022-12-22T15:32:56.234Z,3.40
2022-12-22T15:35:58.676Z,3.34
2022-12-22T15:39:01.331Z,3.41
2022-12-22T15:42:03.928Z,3.43
2022-12-22T15:45:07.199Z,3.38
2022-12-22T15:48:33.031Z,3.36
2022-12-22T15:51:35.881Z,3.36
2022-12-22T15:54:38.731Z,3.44
2022-12-22T15:57:41.966Z,3.49
2022-12-22T16:00:44.555Z,3.52
2022-12-22T16:03:47.399Z,3.42
2022-12-22T16:06:50.707Z,3.34
2022-12-22T16:09:53.331Z,3.24
2022-12-22T16:13:00.703Z,3.20
2022-12-22T16:16:04.369Z,3.15
2022-12-22T16:19:09.272Z,3.00
2022-12-22T16:22:13.983Z,3.03
2022-12-22T16:25:37.455Z,3.08
2022-12-22T16:28:41.510Z,3.08
2022-12-22T16:31:44.027Z,3.04
2022-12-22T16:34:47.609Z,3.11
2022-12-22T16:37:51.206Z,3.17
2022-12-22T16:40:54.225Z,3.23
2022-12-22T16:47:24.438Z,3.41
2022-12-22T16:50:33.095Z,3.52
2022-12-22T16:53:35.765Z,3.54
2022-12-22T16:56:39.022Z,3.51
2022-12-22T16:59:42.387Z,3.44
2022-12-22T17:02:48.107Z,3.61
2022-12-22T17:06:00.951Z,3.66
2022-12-22T17:09:07.065Z,3.67
2022-12-22T17:12:20.160Z,3.66
2022-12-22T17:15:23.140Z,3.74
2022-12-22T17:18:26.115Z,3.81
2022-12-22T17:21:31.991Z,3.91
2022-12-22T17:24:34.912Z,3.88
2022-12-22T17:27:37.758Z,3.93
2022-12-22T17:30:41.101Z,3.93
2022-12-22T17:33:44.857Z,3.91
2022-12-22T17:36:50.162Z,3.96
2022-12-22T17:40:01.673Z,3.94
2022-12-22T17:43:04.428Z,3.95
2022-12-22T17:46:14.900Z,3.83
2022-12-22T17:49:20.115Z,3.91
2022-12-22T17:52:25.434Z,3.92
2022-12-22T17:56:06.580Z,3.91
2022-12-22T17:58:52.858Z,3.96
2022-12-22T18:01:56.854Z,3.89
2022-12-22T18:04:59.589Z,3.97
2022-12-22T18:08:02.224Z,3.98
2022-12-22T18:11:05.711Z,4.03
2022-12-22T18:14:12.665Z,3.86
2022-12-22T18:17:35.098Z,3.91
2022-12-22T18:20:38.331Z,3.98
2022-12-22T18:23:49.337Z,3.96
2022-12-22T18:26:52.548Z,4.00
2022-12-22T18:29:55.223Z,3.97
2022-12-22T18:32:57.688Z,4.03
2022-12-22T18:36:00.786Z,4.06
2022-12-22T18:39:04.276Z,3.99
2022-12-22T18:42:21.692Z,4.05
2022-12-22T18:45:29.352Z,4.07
2022-12-22T18:48:32.013Z,4.19
2022-12-22T18:51:34.592Z,4.25
2022-12-22T18:54:38.204Z,4.30
2022-12-22T18:57:43.000Z,4.39
2022-12-22T19:00:46.261Z,4.45
2022-12-22T19:03:49.656Z,4.52
2022-12-22T19:06:52.382Z,4.44
2022-12-22T19:09:54.696Z,4.45
2022-12-22T19:12:57.855Z,4.39
2022-12-22T19:16:00.890Z,4.37
2022-12-22T19:19:03.673Z,4.30
2022-12-22T19:22:06.168Z,4.39
2022-12-22T19:25:13.578Z,4.43
2022-12-22T19:28:42.716Z,4.44
2022-12-22T19:31:45.684Z,4.44
2022-12-22T19:34:48.107Z,4.43
2022-12-22T19:37:52.986Z,4.39
2022-12-22T19:41:00.466Z,4.29
2022-12-22T19:44:03.796Z,4.29
2022-12-22T19:47:20.316Z,4.35
2022-12-22T19:50:25.671Z,4.42
2022-12-22T19:53:28.115Z,4.47
2022-12-22T19:56:30.872Z,4.48
2022-12-22T19:59:39.876Z,4.43
2022-12-22T20:02:47.253Z,4.43
2022-12-22T20:05:50.553Z,4.38
2022-12-22T20:08:52.939Z,4.48
2022-12-22T20:11:55.687Z,4.56
2022-12-22T20:14:58.836Z,4.63
2022-12-22T20:18:02.810Z,4.58
2022-12-22T20:21:08.280Z,4.48
2022-12-22T20:24:22.618Z,4.43
2022-12-22T20:27:31.565Z,4.52
2022-12-22T20:30:34.314Z,4.54
2022-12-22T20:33:36.746Z,4.53
2022-12-22T20:36:43.185Z,4.57
2022-12-22T20:39:45.816Z,4.58
2022-12-22T20:42:48.843Z,4.56
2022-12-22T20:45:55.430Z,4.57
2022-12-22T20:49:02.700Z,4.52
2022-12-22T20:52:05.496Z,4.63
2022-12-22T20:55:09.945Z,4.62
2022-12-22T20:58:18.127Z,4.66
2022-12-22T21:01:21.395Z,4.68
2022-12-22T21:04:23.845Z,4.68
2022-12-22T21:07:26.554Z,4.68
2022-12-22T21:10:28.987Z,4.67
2022-12-22T21:13:31.784Z,4.69
2022-12-22T21:16:34.403Z,4.70
2022-12-22T21:19:37.009Z,4.63
2022-12-22T21:22:39.692Z,4.71
2022-12-22T21:25:49.605Z,4.70
2022-12-22T21:28:53.051Z,4.75
2022-12-22T21:31:55.678Z,4.87
2022-12-22T21:35:05.891Z,4.92
2022-12-22T21:38:24.099Z,4.86
2022-12-22T21:41:45.126Z,4.92
2022-12-22T21:44:47.797Z,4.97
2022-12-22T21:47:50.401Z,4.96
2022-12-22T21:50:53.305Z,4.89
2022-12-22T21:53:55.671Z,4.98
2022-12-22T21:56:58.401Z,5.02
2022-12-22T22:00:00.924Z,5.00
2022-12-22T22:03:04.447Z,5.13
2022-12-22T22:06:07.428Z,5.16
2022-12-22T22:09:09.954Z,5.18
2022-12-22T22:12:31.519Z,5.16
2022-12-22T22:15:34.756Z,5.15
2022-12-22T22:18:37.936Z,5.15
2022-12-22T22:21:42.670Z,5.11
2022-12-22T22:24:45.390Z,5.07
2022-12-22T22:27:48.311Z,5.05
2022-12-22T22:30:51.055Z,4.91
2022-12-22T22:33:53.425Z,4.98
2022-12-22T22:36:56.038Z,5.01
2022-12-22T22:39:58.399Z,5.01
2022-12-22T22:43:01.022Z,5.03
2022-12-22T22:46:03.368Z,5.03
2022-12-22T22:49:06.950Z,5.04
2022-12-22T22:52:09.339Z,5.09
2022-12-22T22:55:12.785Z,5.09
2022-12-22T22:58:15.088Z,5.08
2022-12-22T23:01:17.673Z,5.15
2022-12-22T23:04:20.161Z,5.18
2022-12-22T23:07:23.022Z,5.22
2022-12-22T23:10:25.449Z,5.19
2022-12-22T23:13:28.881Z,5.28
2022-12-22T23:16:37.712Z,5.20
2022-12-22T23:19:41.198Z,5.29
2022-12-22T23:22:43.537Z,5.31
2022-12-22T23:25:49.249Z,5.29
2022-12-22T23:28:51.673Z,5.21
2022-12-22T23:31:54.426Z,5.18
2022-12-22T23:34:56.805Z,5.14
2022-12-22T23:37:59.384Z,5.24
2022-12-22T23:41:07.515Z,5.24
2022-12-22T23:44:10.276Z,5.22
2022-12-22T23:47:13.010Z,5.23
2022-12-22T23:50:15.874Z,5.14
2022-12-22T23:53:20.816Z,5.13
2022-12-22T23:56:23.477Z,5.18
2022-12-22T23:59:25.868Z,5.26
